Howard, Wisconsin
Current Conditions -  °F | °C
As of 9:53 PM on Saturday 20 Dec 2014 (Local Time) from KGRB Reporting Station
Haze Haze  
Wind Chill: 29°   Ceiling: 3500
Heat Index: 29°   Visibility: 4mi
Dew Point: 26°   Wind: 3mph
Humidity: 89%   Direction: 190°S
Pressure: 30.22"   Gusts: NA
Location:  44.5933°N, 88.1103°W
Report Text: KGRB 210353Z 19003KT 4SM BR OVC035 M02/M03 A3022 RMK AO2 SLP242 T10171033
Loading
Personal Weather Stations






























Interactive Weather Map New forecast layout! Learn more

10-Day Weather Forecast

Advertisements
Track Severe Weather on mobile